createdAt,value
2023-07-18T00:00:30.922Z,4.30
2023-07-18T00:01:03.554Z,4.20
2023-07-18T00:01:36.502Z,4.05
2023-07-18T00:02:08.857Z,3.85
2023-07-18T00:02:41.199Z,4.07
2023-07-18T00:03:16.803Z,3.40
2023-07-18T00:03:49.201Z,3.80
2023-07-18T00:04:21.138Z,4.03
2023-07-18T00:04:53.633Z,3.35
2023-07-18T00:05:25.708Z,4.90
2023-07-18T00:05:57.628Z,3.63
2023-07-18T00:06:29.464Z,3.72
2023-07-18T00:07:01.349Z,4.10
2023-07-18T00:07:33.361Z,3.25
2023-07-18T00:08:06.023Z,2.90
2023-07-18T00:08:38.085Z,3.60
2023-07-18T00:09:10.058Z,3.80
2023-07-18T00:09:42.066Z,3.88
2023-07-18T00:10:14.681Z,4.10
2023-07-18T00:10:47.349Z,3.25
2023-07-18T00:11:19.510Z,4.50
2023-07-18T00:11:51.596Z,3.03
2023-07-18T00:12:24.295Z,3.40
2023-07-18T00:12:56.588Z,3.97
2023-07-18T00:13:28.508Z,4.28
2023-07-18T00:14:00.967Z,4.13
2023-07-18T00:14:33.140Z,3.60
2023-07-18T00:15:06.345Z,4.80
2023-07-18T00:15:38.738Z,3.92
2023-07-18T00:16:11.025Z,4.28
2023-07-18T00:16:45.519Z,4.22
2023-07-18T00:17:17.439Z,4.13
2023-07-18T00:17:50.219Z,4.15
2023-07-18T00:18:22.779Z,4.57
2023-07-18T00:18:54.887Z,3.90
2023-07-18T00:19:28.606Z,4.07
2023-07-18T00:20:05.457Z,4.65
2023-07-18T00:20:37.343Z,4.03
2023-07-18T00:21:09.361Z,4.03
2023-07-18T00:21:41.929Z,4.03
2023-07-18T00:22:13.879Z,4.20
2023-07-18T00:22:50.818Z,4.30
2023-07-18T00:23:23.922Z,3.88
2023-07-18T00:23:56.476Z,4.82
2023-07-18T00:24:30.027Z,4.47
2023-07-18T00:25:02.489Z,4.10
2023-07-18T00:25:34.548Z,3.90
2023-07-18T00:26:06.642Z,4.43
2023-07-18T00:26:39.197Z,3.70
2023-07-18T00:27:11.317Z,4.05
2023-07-18T00:27:44.543Z,3.83
2023-07-18T00:28:17.671Z,4.53
2023-07-18T00:28:54.685Z,4.20
2023-07-18T00:29:27.390Z,3.70
2023-07-18T00:29:59.476Z,4.43
2023-07-18T00:30:31.727Z,4.15
2023-07-18T00:31:04.522Z,3.88
2023-07-18T00:31:37.508Z,4.03
2023-07-18T00:32:12.052Z,4.00
2023-07-18T00:32:46.024Z,4.32
2023-07-18T00:33:18.032Z,4.15
2023-07-18T00:33:50.058Z,3.60
2023-07-18T00:34:21.975Z,4.28
2023-07-18T00:34:57.680Z,4.20
2023-07-18T00:35:29.777Z,3.80
2023-07-18T00:36:01.935Z,4.30
2023-07-18T00:36:34.076Z,3.90
2023-07-18T00:37:06.627Z,3.80
2023-07-18T00:37:39.804Z,3.90
2023-07-18T00:38:12.941Z,4.13
2023-07-18T00:38:46.211Z,4.05
2023-07-18T00:39:18.230Z,3.70
2023-07-18T00:39:50.740Z,3.95
2023-07-18T00:40:23.278Z,4.10
2023-07-18T00:40:56.021Z,5.05
2023-07-18T00:41:28.059Z,3.75
2023-07-18T00:42:01.698Z,3.90
2023-07-18T00:42:33.723Z,4.07
2023-07-18T00:43:13.420Z,4.13
2023-07-18T00:43:46.492Z,3.63
2023-07-18T00:44:18.429Z,4.15
2023-07-18T00:44:51.517Z,4.28
2023-07-18T00:45:23.533Z,3.83
2023-07-18T00:45:55.631Z,3.85
2023-07-18T00:46:28.546Z,4.40
2023-07-18T00:47:02.180Z,4.00
2023-07-18T00:47:41.623Z,4.10
2023-07-18T00:48:15.119Z,4.20
2023-07-18T00:48:47.576Z,4.60
2023-07-18T00:49:19.741Z,3.88
2023-07-18T00:49:52.234Z,3.63
2023-07-18T00:50:25.635Z,3.83
2023-07-18T00:50:57.792Z,3.75
2023-07-18T00:51:30.957Z,3.97
2023-07-18T00:52:05.774Z,3.88
2023-07-18T00:52:45.022Z,4.03
2023-07-18T00:53:17.184Z,3.85
2023-07-18T00:53:49.297Z,3.67
2023-07-18T00:54:22.167Z,4.32
2023-07-18T00:54:54.389Z,4.25
2023-07-18T00:55:26.730Z,3.60
2023-07-18T00:56:00.557Z,4.20
2023-07-18T00:56:32.785Z,4.30
2023-07-18T00:57:06.515Z,3.83
2023-07-18T00:57:40.825Z,3.67
2023-07-18T00:58:13.571Z,4.30
2023-07-18T00:58:46.201Z,3.92
2023-07-18T00:59:18.793Z,3.67
2023-07-18T00:59:51.539Z,3.50
2023-07-18T01:00:24.308Z,3.72
2023-07-18T01:00:56.457Z,3.38
2023-07-18T01:01:28.562Z,4.00
2023-07-18T01:02:04.095Z,4.25
2023-07-18T01:02:38.173Z,3.80
2023-07-18T01:03:11.261Z,3.97
2023-07-18T01:03:43.530Z,4.15
2023-07-18T01:04:16.125Z,3.75
2023-07-18T01:04:48.682Z,3.65
2023-07-18T01:05:20.839Z,3.53
2023-07-18T01:05:54.539Z,3.35
2023-07-18T01:06:26.684Z,3.72
2023-07-18T01:07:01.305Z,4.15
2023-07-18T01:07:33.894Z,3.80
2023-07-18T01:08:06.265Z,3.75
2023-07-18T01:08:40.631Z,3.67
2023-07-18T01:09:13.059Z,4.05
2023-07-18T01:09:46.049Z,3.88
2023-07-18T01:10:25.781Z,4.03
2023-07-18T01:10:58.084Z,4.00
2023-07-18T01:11:29.988Z,4.32
2023-07-18T01:12:01.885Z,3.55
2023-07-18T01:12:33.865Z,3.53
2023-07-18T01:13:05.882Z,3.63
2023-07-18T01:13:37.987Z,3.92
2023-07-18T01:14:10.953Z,4.18
2023-07-18T01:14:43.034Z,4.28
2023-07-18T01:15:15.181Z,3.85
2023-07-18T01:15:48.178Z,3.92
2023-07-18T01:16:20.384Z,4.22
2023-07-18T01:16:54.469Z,3.80
2023-07-18T01:17:26.608Z,3.88
2023-07-18T01:17:59.115Z,3.28
2023-07-18T01:18:31.185Z,3.85
2023-07-18T01:19:03.319Z,4.20
2023-07-18T01:19:36.871Z,4.00
2023-07-18T01:20:13.208Z,3.90
2023-07-18T01:20:47.009Z,3.92
2023-07-18T01:21:20.639Z,3.90
2023-07-18T01:21:52.909Z,3.47
2023-07-18T01:22:24.985Z,4.07
2023-07-18T01:23:00.869Z,4.00
2023-07-18T01:23:32.869Z,3.85
2023-07-18T01:24:05.211Z,3.67
2023-07-18T01:24:37.125Z,3.47
2023-07-18T01:25:13.060Z,4.18
2023-07-18T01:25:45.042Z,3.88
2023-07-18T01:26:17.134Z,3.88
2023-07-18T01:26:49.112Z,4.25
2023-07-18T01:27:21.024Z,3.53
2023-07-18T01:27:55.576Z,4.22
2023-07-18T01:28:27.624Z,4.22
2023-07-18T01:29:00.526Z,3.97
2023-07-18T01:29:34.105Z,3.63
2023-07-18T01:30:07.201Z,4.07
2023-07-18T01:30:41.176Z,3.80
2023-07-18T01:31:13.218Z,3.72
2023-07-18T01:31:46.197Z,3.70
2023-07-18T01:32:18.215Z,4.35
2023-07-18T01:32:51.586Z,4.40
2023-07-18T01:33:23.709Z,3.40
2023-07-18T01:33:55.612Z,3.45
2023-07-18T01:34:27.588Z,4.13
2023-07-18T01:35:05.145Z,3.58
2023-07-18T01:35:37.189Z,4.25
2023-07-18T01:36:09.290Z,4.10
2023-07-18T01:36:42.293Z,4.07
2023-07-18T01:37:16.384Z,3.83
2023-07-18T01:37:49.586Z,3.88
2023-07-18T01:38:21.729Z,3.97
2023-07-18T01:38:53.789Z,3.67
2023-07-18T01:39:27.523Z,4.28
2023-07-18T01:40:00.706Z,3.95
2023-07-18T01:40:32.679Z,4.05
2023-07-18T01:41:04.729Z,3.65
2023-07-18T01:41:37.084Z,3.78
2023-07-18T01:42:09.307Z,4.15
2023-07-18T01:42:43.779Z,3.90
2023-07-18T01:43:15.687Z,3.85
2023-07-18T01:43:47.708Z,4.50
2023-07-18T01:44:20.484Z,3.83
2023-07-18T01:44:52.717Z,3.97
2023-07-18T01:45:26.716Z,3.85
2023-07-18T01:46:00.211Z,4.65
2023-07-18T01:46:34.416Z,3.92
2023-07-18T01:47:06.639Z,4.43
2023-07-18T01:47:39.627Z,3.47
2023-07-18T01:48:11.786Z,4.65
2023-07-18T01:48:44.789Z,4.03
2023-07-18T01:49:16.796Z,3.92
2023-07-18T01:49:48.844Z,4.30
2023-07-18T01:50:20.943Z,4.03
2023-07-18T01:50:54.181Z,4.43
2023-07-18T01:51:29.679Z,3.92
2023-07-18T01:52:02.014Z,4.00
2023-07-18T01:52:35.669Z,4.00
2023-07-18T01:53:07.812Z,4.30
2023-07-18T01:53:39.714Z,5.15
2023-07-18T01:54:12.432Z,4.07
2023-07-18T01:54:44.930Z,4.50
2023-07-18T01:55:17.118Z,3.85
2023-07-18T01:55:49.176Z,3.88
2023-07-18T01:56:21.168Z,4.10
2023-07-18T01:56:54.063Z,4.07
2023-07-18T01:57:29.642Z,4.03
2023-07-18T01:58:01.661Z,4.55
2023-07-18T01:58:33.708Z,5.05
2023-07-18T01:59:06.504Z,4.82
2023-07-18T01:59:38.474Z,4.35
2023-07-18T02:00:12.712Z,4.47
2023-07-18T02:00:48.190Z,4.47
2023-07-18T02:01:20.963Z,4.60
2023-07-18T02:01:53.350Z,4.88
2023-07-18T02:02:26.349Z,4.45
2023-07-18T02:02:58.973Z,4.78
2023-07-18T02:03:32.953Z,5.00
2023-07-18T02:04:05.102Z,5.45
2023-07-18T02:04:37.016Z,4.93
2023-07-18T02:05:09.903Z,4.40
2023-07-18T02:05:41.792Z,4.45
2023-07-18T02:06:13.785Z,4.75
2023-07-18T02:06:45.772Z,4.55
2023-07-18T02:07:17.698Z,4.78
2023-07-18T02:07:50.213Z,4.10
2023-07-18T02:08:22.228Z,4.57
2023-07-18T02:08:54.187Z,4.95
2023-07-18T02:09:26.696Z,4.75
2023-07-18T02:10:01.160Z,5.57
2023-07-18T02:10:33.419Z,4.07
2023-07-18T02:11:07.194Z,5.45
2023-07-18T02:11:39.188Z,4.93
2023-07-18T02:12:11.342Z,5.30
2023-07-18T02:12:43.435Z,4.63
2023-07-18T02:13:15.389Z,5.13
2023-07-18T02:13:47.205Z,5.03
2023-07-18T02:14:21.274Z,4.53
2023-07-18T02:14:53.449Z,4.85
2023-07-18T02:15:25.412Z,4.68
2023-07-18T02:15:57.448Z,4.75
2023-07-18T02:16:29.417Z,4.50
2023-07-18T02:17:01.402Z,5.57
2023-07-18T02:17:34.592Z,4.53
2023-07-18T02:18:06.635Z,5.00
2023-07-18T02:18:38.986Z,4.60
2023-07-18T02:19:10.777Z,6.47
2023-07-18T02:19:42.624Z,5.03
2023-07-18T02:20:16.493Z,5.15
2023-07-18T02:20:48.460Z,5.00
2023-07-18T02:21:20.577Z,4.82
2023-07-18T02:21:52.765Z,4.43
2023-07-18T02:22:25.415Z,5.75
2023-07-18T02:22:57.621Z,4.57
2023-07-18T02:23:29.764Z,5.57
2023-07-18T02:24:02.041Z,4.75
2023-07-18T02:24:34.933Z,5.07
2023-07-18T02:25:10.106Z,5.28
2023-07-18T02:25:42.015Z,4.63
2023-07-18T02:26:15.348Z,5.05
2023-07-18T02:26:47.352Z,5.22
2023-07-18T02:27:20.865Z,5.20
2023-07-18T02:27:54.728Z,5.25
2023-07-18T02:28:26.741Z,5.43
2023-07-18T02:28:58.699Z,4.80
2023-07-18T02:29:30.773Z,5.38
2023-07-18T02:30:03.448Z,4.68
2023-07-18T02:30:39.424Z,5.85
2023-07-18T02:31:11.462Z,5.25
2023-07-18T02:31:44.854Z,5.65
2023-07-18T02:32:18.177Z,5.53
2023-07-18T02:32:50.653Z,4.90
2023-07-18T02:33:22.575Z,4.88
2023-07-18T02:33:54.729Z,5.38
2023-07-18T02:34:27.152Z,4.82
2023-07-18T02:34:59.326Z,5.53
2023-07-18T02:35:31.241Z,4.60
2023-07-18T02:36:07.532Z,5.47
2023-07-18T02:36:39.460Z,5.20
2023-07-18T02:37:11.585Z,4.60
2023-07-18T02:37:43.489Z,5.72
2023-07-18T02:38:15.357Z,6.07
2023-07-18T02:38:47.235Z,5.20
2023-07-18T02:39:19.231Z,5.30
2023-07-18T02:39:51.963Z,5.57
2023-07-18T02:40:23.958Z,5.60
2023-07-18T02:40:55.946Z,5.18
2023-07-18T02:41:28.561Z,5.20
2023-07-18T02:42:00.583Z,4.97
2023-07-18T02:42:34.985Z,4.68
2023-07-18T02:43:07.471Z,5.35
2023-07-18T02:43:39.461Z,5.50
2023-07-18T02:44:12.515Z,5.18
2023-07-18T02:44:47.502Z,4.93
2023-07-18T02:45:21.441Z,4.88
2023-07-18T02:45:53.445Z,5.80
2023-07-18T02:46:25.409Z,5.15
2023-07-18T02:46:57.464Z,4.70
2023-07-18T02:47:29.624Z,3.83
2023-07-18T02:48:01.526Z,4.45
2023-07-18T02:48:33.603Z,5.18
2023-07-18T02:49:05.559Z,4.90
2023-07-18T02:49:37.477Z,5.57
2023-07-18T02:50:09.921Z,5.45
2023-07-18T02:50:42.235Z,4.85
2023-07-18T02:51:14.753Z,4.50
2023-07-18T02:51:46.617Z,5.10
2023-07-18T02:52:18.613Z,5.15
2023-07-18T02:52:50.745Z,4.88
2023-07-18T02:53:23.552Z,5.00
2023-07-18T02:53:55.608Z,5.53
2023-07-18T02:54:27.824Z,4.82
2023-07-18T02:54:59.842Z,4.75
2023-07-18T02:55:32.195Z,5.75
2023-07-18T02:56:04.370Z,5.20
2023-07-18T02:56:36.721Z,4.68
2023-07-18T02:57:08.846Z,5.60
2023-07-18T02:57:40.974Z,5.28
2023-07-18T02:58:13.086Z,4.97
2023-07-18T02:58:45.207Z,5.32
2023-07-18T02:59:22.056Z,5.20
2023-07-18T02:59:54.050Z,4.50
2023-07-18T03:00:29.828Z,4.93
2023-07-18T03:01:02.288Z,4.78
2023-07-18T03:01:35.443Z,5.13
2023-07-18T03:02:07.660Z,5.30
2023-07-18T03:02:40.906Z,5.28
2023-07-18T03:03:13.955Z,4.40
2023-07-18T03:03:46.496Z,5.28
2023-07-18T03:04:18.580Z,5.00
2023-07-18T03:04:50.581Z,5.00
2023-07-18T03:05:25.603Z,5.57
2023-07-18T03:05:57.715Z,5.05
2023-07-18T03:06:30.460Z,4.57
2023-07-18T03:07:04.356Z,5.15
2023-07-18T03:07:36.410Z,5.18
2023-07-18T03:08:08.290Z,5.57
2023-07-18T03:08:40.163Z,4.75
2023-07-18T03:09:12.044Z,6.13
2023-07-18T03:09:44.245Z,5.00
2023-07-18T03:10:16.665Z,4.93
2023-07-18T03:10:48.677Z,5.40
2023-07-18T03:11:20.955Z,5.57
2023-07-18T03:11:53.255Z,5.18
2023-07-18T03:12:25.679Z,5.63
2023-07-18T03:12:57.639Z,5.00
2023-07-18T03:13:29.605Z,4.93
2023-07-18T03:14:01.978Z,5.20
2023-07-18T03:14:37.042Z,4.90
2023-07-18T03:15:12.614Z,4.93
2023-07-18T03:15:44.969Z,5.18
2023-07-18T03:16:17.468Z,5.18
2023-07-18T03:16:50.295Z,5.30
2023-07-18T03:17:22.894Z,5.72
2023-07-18T03:17:54.922Z,5.03
2023-07-18T03:18:27.361Z,4.85
2023-07-18T03:19:00.373Z,5.97
2023-07-18T03:19:32.989Z,5.25
2023-07-18T03:20:18.114Z,4.63
2023-07-18T03:20:50.643Z,4.65
2023-07-18T03:21:25.337Z,5.15
2023-07-18T03:21:57.199Z,5.28
2023-07-18T03:22:29.401Z,5.43
2023-07-18T03:23:03.173Z,5.15
2023-07-18T03:23:35.610Z,5.22
2023-07-18T03:24:11.421Z,5.20
2023-07-18T03:24:43.438Z,5.10
2023-07-18T03:25:16.210Z,5.35
2023-07-18T03:25:49.543Z,5.28
2023-07-18T03:26:22.221Z,5.60
2023-07-18T03:26:57.839Z,5.28
2023-07-18T03:27:29.804Z,5.03
2023-07-18T03:28:02.340Z,4.95
2023-07-18T03:28:34.287Z,5.00
2023-07-18T03:29:08.974Z,5.18
2023-07-18T03:29:42.808Z,5.00
2023-07-18T03:30:15.121Z,5.43
2023-07-18T03:30:46.956Z,4.88
2023-07-18T03:31:18.870Z,5.75
2023-07-18T03:31:51.034Z,5.43
2023-07-18T03:32:23.779Z,5.95
2023-07-18T03:32:58.645Z,5.85
2023-07-18T03:33:32.803Z,4.70
2023-07-18T03:34:05.984Z,4.57
2023-07-18T03:34:38.365Z,5.63
2023-07-18T03:35:12.232Z,5.40
2023-07-18T03:35:44.250Z,5.53
2023-07-18T03:36:16.177Z,5.43
2023-07-18T03:36:48.606Z,4.97
2023-07-18T03:37:20.458Z,5.60
2023-07-18T03:37:52.358Z,5.40
2023-07-18T03:38:24.179Z,5.40
2023-07-18T03:38:56.099Z,5.55
2023-07-18T03:39:32.248Z,5.70
2023-07-18T03:40:07.326Z,6.10
2023-07-18T03:40:39.492Z,5.18
2023-07-18T03:41:11.661Z,5.25
2023-07-18T03:41:44.092Z,5.85
2023-07-18T03:42:16.083Z,6.50
2023-07-18T03:42:48.922Z,5.60
2023-07-18T03:43:20.845Z,5.75
2023-07-18T03:43:52.757Z,5.82
2023-07-18T03:44:24.874Z,5.25
2023-07-18T03:44:56.857Z,5.70
2023-07-18T03:45:30.248Z,5.00
2023-07-18T03:46:02.207Z,5.28
2023-07-18T03:46:34.299Z,5.70
2023-07-18T03:47:43.926Z,5.32
2023-07-18T03:48:15.850Z,5.60
2023-07-18T03:48:47.823Z,5.65
2023-07-18T03:49:19.738Z,5.65
2023-07-18T03:49:51.796Z,4.90
2023-07-18T03:50:24.784Z,5.07
2023-07-18T03:50:56.622Z,5.03
2023-07-18T03:51:30.994Z,5.38
2023-07-18T03:52:06.088Z,5.63
2023-07-18T03:52:38.050Z,5.55
2023-07-18T03:53:09.987Z,5.68
2023-07-18T03:53:42.035Z,5.63
2023-07-18T03:54:13.958Z,4.97
2023-07-18T03:54:46.695Z,4.35
2023-07-18T03:55:18.768Z,5.15
2023-07-18T03:55:50.728Z,6.07
2023-07-18T03:56:22.587Z,5.32
2023-07-18T03:56:54.656Z,5.50
2023-07-18T03:57:28.372Z,5.25
2023-07-18T03:58:01.226Z,5.03
2023-07-18T03:58:34.281Z,5.97
2023-07-18T03:59:06.137Z,5.55
2023-07-18T03:59:37.985Z,5.30
2023-07-18T04:00:19.070Z,6.10
2023-07-18T04:00:51.545Z,4.65
2023-07-18T04:01:33.421Z,5.18
2023-07-18T04:02:06.188Z,5.55
2023-07-18T04:02:38.307Z,4.88
2023-07-18T04:03:13.842Z,5.15
2023-07-18T04:03:45.906Z,4.80
2023-07-18T04:04:17.896Z,5.32
2023-07-18T04:04:49.763Z,5.35
2023-07-18T04:05:21.729Z,5.35
2023-07-18T04:05:53.961Z,5.50
2023-07-18T04:06:25.986Z,5.20
2023-07-18T04:06:58.030Z,5.20
2023-07-18T04:07:29.916Z,5.10
2023-07-18T04:08:01.764Z,5.22
2023-07-18T04:08:33.796Z,4.78
2023-07-18T04:09:07.060Z,5.15
2023-07-18T04:09:39.006Z,4.90
2023-07-18T04:10:12.954Z,4.75
2023-07-18T04:10:46.174Z,4.93
2023-07-18T04:11:18.712Z,4.85
2023-07-18T04:11:51.044Z,4.95
2023-07-18T04:12:23.004Z,4.60
2023-07-18T04:12:54.993Z,5.13
2023-07-18T04:13:27.193Z,5.45
2023-07-18T04:13:59.121Z,4.40
2023-07-18T04:14:31.223Z,5.10
2023-07-18T04:15:03.809Z,5.45
2023-07-18T04:15:35.914Z,4.88
2023-07-18T04:16:08.530Z,4.65
2023-07-18T04:16:40.619Z,5.45
2023-07-18T04:17:12.497Z,5.35
2023-07-18T04:17:44.679Z,4.53
2023-07-18T04:18:16.724Z,5.50
2023-07-18T04:18:48.763Z,5.57
2023-07-18T04:19:21.062Z,4.85
2023-07-18T04:19:53.546Z,5.75
2023-07-18T04:20:25.556Z,5.78
2023-07-18T04:21:05.392Z,5.88
2023-07-18T04:21:37.600Z,5.30
2023-07-18T04:22:12.124Z,4.75
2023-07-18T04:22:44.205Z,4.95
2023-07-18T04:23:17.163Z,5.95
2023-07-18T04:23:49.792Z,5.75
2023-07-18T04:24:22.667Z,5.22
2023-07-18T04:24:55.644Z,5.97
2023-07-18T04:25:33.590Z,4.90
2023-07-18T04:26:05.633Z,5.40
2023-07-18T04:26:37.569Z,5.05
2023-07-18T04:27:09.635Z,4.78
2023-07-18T04:27:41.685Z,5.63
2023-07-18T04:28:13.718Z,4.90
2023-07-18T04:28:45.667Z,5.05
2023-07-18T04:29:20.150Z,5.63
2023-07-18T04:29:52.217Z,4.97
2023-07-18T04:30:24.268Z,5.30
2023-07-18T04:30:57.065Z,4.63
2023-07-18T04:31:29.044Z,5.28
2023-07-18T04:32:01.062Z,5.47
2023-07-18T04:32:33.061Z,5.13
2023-07-18T04:33:05.008Z,4.53
2023-07-18T04:33:39.433Z,5.80
2023-07-18T04:34:11.839Z,4.63
2023-07-18T04:34:43.703Z,4.70
2023-07-18T04:35:16.072Z,4.75
2023-07-18T04:35:48.884Z,5.18
2023-07-18T04:36:20.901Z,4.75
2023-07-18T04:36:52.874Z,5.53
2023-07-18T04:37:24.838Z,5.40
2023-07-18T04:37:58.627Z,5.18
2023-07-18T04:38:31.502Z,5.50
2023-07-18T04:39:03.908Z,4.85
2023-07-18T04:39:35.892Z,5.38
2023-07-18T04:40:10.175Z,5.13
2023-07-18T04:40:42.909Z,5.03
2023-07-18T04:41:14.885Z,5.93
2023-07-18T04:41:55.022Z,5.60
2023-07-18T04:42:28.676Z,5.32
2023-07-18T04:43:00.617Z,5.03
2023-07-18T04:43:32.661Z,5.35
2023-07-18T04:44:04.817Z,5.15
2023-07-18T04:44:37.778Z,5.28
2023-07-18T04:45:09.998Z,5.03
2023-07-18T04:45:46.642Z,5.65
2023-07-18T04:46:18.646Z,5.03
2023-07-18T04:46:50.958Z,4.90
2023-07-18T04:47:23.995Z,5.50
2023-07-18T04:47:56.163Z,5.35
2023-07-18T04:48:29.734Z,3.80
2023-07-18T04:49:01.773Z,5.15
2023-07-18T04:49:34.058Z,4.97
2023-07-18T04:50:11.907Z,5.40
2023-07-18T04:50:46.030Z,5.28
2023-07-18T04:51:19.733Z,5.55
2023-07-18T04:51:52.703Z,5.35
2023-07-18T04:52:25.016Z,5.13
2023-07-18T04:52:57.018Z,4.80
2023-07-18T04:53:31.022Z,5.03
2023-07-18T04:54:04.136Z,4.55
2023-07-18T04:54:36.081Z,5.03
2023-07-18T04:55:10.089Z,5.25
2023-07-18T04:55:42.005Z,5.72
2023-07-18T04:56:14.881Z,4.78
2023-07-18T04:56:46.738Z,4.75
2023-07-18T04:57:18.937Z,5.65
2023-07-18T04:57:50.832Z,4.95
2023-07-18T04:58:26.320Z,5.57
2023-07-18T04:58:58.259Z,5.40
2023-07-18T04:59:32.398Z,5.65
2023-07-18T05:00:08.007Z,5.20
2023-07-18T05:00:39.821Z,5.70
2023-07-18T05:01:11.773Z,5.28
2023-07-18T05:01:43.817Z,4.85
2023-07-18T05:02:15.678Z,5.55
2023-07-18T05:02:47.785Z,5.03
2023-07-18T05:03:20.055Z,4.68
2023-07-18T05:03:57.700Z,5.10
2023-07-18T05:04:30.339Z,4.03
2023-07-18T05:05:03.045Z,4.60
2023-07-18T05:05:35.889Z,5.00
2023-07-18T05:06:07.891Z,4.55
2023-07-18T05:06:39.819Z,4.97
2023-07-18T05:07:12.008Z,4.82
2023-07-18T05:07:46.068Z,6.07
2023-07-18T05:08:18.753Z,4.32
2023-07-18T05:08:50.727Z,4.35
2023-07-18T05:09:22.917Z,4.55
2023-07-18T05:09:55.820Z,4.93
2023-07-18T05:10:27.949Z,4.75
2023-07-18T05:11:04.014Z,5.00
2023-07-18T05:11:35.959Z,4.82
2023-07-18T05:12:08.299Z,4.25
2023-07-18T05:12:40.940Z,4.70
2023-07-18T05:13:13.888Z,5.00
2023-07-18T05:13:45.890Z,4.38
2023-07-18T05:14:17.856Z,4.75
2023-07-18T05:14:49.746Z,4.18
2023-07-18T05:15:22.221Z,4.18
2023-07-18T05:15:54.184Z,3.92
2023-07-18T05:16:26.428Z,4.57
2023-07-18T05:16:58.286Z,3.92
2023-07-18T05:17:30.798Z,3.78
2023-07-18T05:18:03.780Z,3.95
2023-07-18T05:18:35.769Z,4.20
2023-07-18T05:19:07.626Z,4.20
2023-07-18T05:19:39.526Z,4.10
2023-07-18T05:20:13.143Z,4.32
2023-07-18T05:20:45.105Z,3.83
2023-07-18T05:21:17.130Z,4.32
2023-07-18T05:21:51.400Z,3.88
2023-07-18T05:22:23.372Z,4.00
2023-07-18T05:22:55.283Z,4.63
2023-07-18T05:23:27.232Z,4.32
2023-07-18T05:23:59.109Z,4.32
2023-07-18T05:24:30.912Z,3.90
2023-07-18T05:25:02.807Z,4.47
2023-07-18T05:25:34.883Z,4.30
2023-07-18T05:26:09.367Z,4.10
2023-07-18T05:26:41.161Z,3.95
2023-07-18T05:27:13.055Z,3.60
2023-07-18T05:27:45.267Z,3.97
2023-07-18T05:28:17.216Z,4.22
2023-07-18T05:28:49.542Z,3.80
2023-07-18T05:29:21.405Z,3.92
2023-07-18T05:29:53.278Z,4.03
2023-07-18T05:30:25.844Z,4.57
2023-07-18T05:30:57.841Z,4.47
2023-07-18T05:31:29.780Z,3.47
2023-07-18T05:32:02.608Z,4.43
2023-07-18T05:32:34.542Z,3.90
2023-07-18T05:33:06.534Z,4.25
2023-07-18T05:33:38.755Z,3.97
2023-07-18T05:34:10.728Z,4.00
2023-07-18T05:34:43.656Z,4.00
2023-07-18T05:35:15.688Z,4.25
2023-07-18T05:35:48.490Z,3.85
2023-07-18T05:36:21.370Z,3.30
2023-07-18T05:36:53.271Z,4.80
2023-07-18T05:37:26.946Z,4.07
2023-07-18T05:37:59.425Z,4.28
2023-07-18T05:38:31.482Z,4.18
2023-07-18T05:39:04.048Z,4.85
2023-07-18T05:39:36.799Z,4.25
2023-07-18T05:40:13.218Z,4.38
2023-07-18T05:40:45.155Z,4.30
2023-07-18T05:41:17.225Z,4.65
2023-07-18T05:41:49.389Z,4.20
2023-07-18T05:42:21.918Z,5.10
2023-07-18T05:42:55.353Z,4.05
2023-07-18T05:43:27.699Z,4.35
2023-07-18T05:43:59.562Z,4.28
2023-07-18T05:44:32.194Z,4.00
2023-07-18T05:45:06.104Z,3.70
2023-07-18T05:45:38.058Z,5.10
2023-07-18T05:46:11.515Z,3.78
2023-07-18T05:46:43.733Z,3.95
2023-07-18T05:47:16.627Z,4.15
2023-07-18T05:47:48.900Z,4.93
2023-07-18T05:48:21.699Z,4.25
2023-07-18T05:48:53.563Z,4.55
2023-07-18T05:49:25.599Z,4.18
2023-07-18T05:49:57.724Z,4.10
2023-07-18T05:50:29.740Z,3.92
2023-07-18T05:51:01.946Z,3.70
2023-07-18T05:51:33.878Z,4.53
2023-07-18T05:52:06.092Z,4.30
2023-07-18T05:52:39.595Z,3.75
2023-07-18T05:53:11.676Z,4.22
2023-07-18T05:53:43.527Z,3.88
2023-07-18T05:54:15.382Z,3.70
2023-07-18T05:54:47.737Z,3.28
2023-07-18T05:55:19.742Z,3.55
2023-07-18T05:55:53.166Z,4.07
2023-07-18T05:56:25.095Z,3.90
2023-07-18T05:57:01.176Z,3.60
2023-07-18T05:57:33.560Z,3.88
2023-07-18T05:58:05.424Z,4.03
2023-07-18T05:58:37.363Z,4.00
2023-07-18T05:59:09.546Z,3.20
2023-07-18T05:59:41.598Z,3.78
2023-07-18T06:00:15.056Z,3.78
2023-07-18T06:00:47.450Z,4.10
2023-07-18T06:01:19.642Z,3.70
2023-07-18T06:01:52.677Z,3.83
2023-07-18T06:02:24.605Z,3.97
2023-07-18T06:02:58.927Z,3.20
2023-07-18T06:03:31.076Z,3.53
2023-07-18T06:04:03.232Z,3.20
2023-07-18T06:04:37.662Z,4.30
2023-07-18T06:05:10.925Z,3.15
2023-07-18T06:05:42.741Z,3.78
2023-07-18T06:06:14.718Z,3.22
2023-07-18T06:06:46.975Z,3.45
2023-07-18T06:07:19.746Z,3.03
2023-07-18T06:07:52.551Z,2.90
2023-07-18T06:08:24.435Z,3.30
2023-07-18T06:08:56.868Z,3.58
2023-07-18T06:09:28.752Z,3.22
2023-07-18T06:10:00.814Z,3.90
2023-07-18T06:10:32.651Z,3.67
2023-07-18T06:11:04.929Z,3.67
2023-07-18T06:11:38.636Z,3.13
2023-07-18T06:12:10.876Z,3.30
2023-07-18T06:12:45.851Z,2.95
2023-07-18T06:13:17.947Z,3.40
2023-07-18T06:13:50.696Z,3.28
2023-07-18T06:14:22.586Z,3.83
2023-07-18T06:14:56.170Z,3.25
2023-07-18T06:15:28.061Z,3.00
2023-07-18T06:16:00.058Z,3.38
2023-07-18T06:16:33.691Z,3.05
2023-07-18T06:17:06.152Z,2.47
2023-07-18T06:17:38.291Z,2.85
2023-07-18T06:18:10.625Z,3.83
2023-07-18T06:18:42.854Z,2.97
2023-07-18T06:19:16.457Z,2.85
2023-07-18T06:19:48.300Z,2.92
2023-07-18T06:20:21.210Z,3.53
2023-07-18T06:20:53.707Z,3.55
2023-07-18T06:21:27.578Z,2.72
2023-07-18T06:22:00.436Z,3.10
2023-07-18T06:22:32.269Z,2.70
2023-07-18T06:23:04.105Z,3.28
2023-07-18T06:23:36.049Z,3.00
2023-07-18T06:24:18.146Z,3.33
2023-07-18T06:24:50.986Z,2.95
2023-07-18T06:25:22.916Z,3.20
2023-07-18T06:25:54.884Z,2.83
2023-07-18T06:26:27.673Z,2.35
2023-07-18T06:26:59.470Z,3.10
2023-07-18T06:27:32.342Z,2.75
2023-07-18T06:28:05.627Z,2.65
2023-07-18T06:28:37.506Z,3.30
2023-07-18T06:29:09.639Z,3.22
2023-07-18T06:29:41.452Z,2.60
2023-07-18T06:30:13.602Z,3.17
2023-07-18T06:30:45.925Z,2.70
2023-07-18T06:31:19.867Z,3.42
2023-07-18T06:31:52.110Z,3.03
2023-07-18T06:32:25.120Z,2.90
2023-07-18T06:32:57.363Z,3.20
2023-07-18T06:33:29.374Z,3.40
2023-07-18T06:34:01.662Z,3.45
2023-07-18T06:34:34.536Z,3.28
2023-07-18T06:35:21.548Z,2.95
2023-07-18T06:35:57.307Z,2.55
2023-07-18T06:36:29.359Z,2.88
2023-07-18T06:37:03.443Z,3.28
2023-07-18T06:37:36.307Z,3.25
2023-07-18T06:38:08.154Z,3.00
2023-07-18T06:38:40.070Z,2.80
2023-07-18T06:39:12.958Z,4.25
2023-07-18T06:39:45.608Z,3.22
2023-07-18T06:40:18.154Z,3.42
2023-07-18T06:40:51.179Z,2.90
2023-07-18T06:41:23.011Z,3.10
2023-07-18T06:41:54.837Z,3.65
2023-07-18T06:42:26.683Z,2.95
2023-07-18T06:42:58.554Z,3.22
2023-07-18T06:43:30.606Z,3.63
2023-07-18T06:44:03.282Z,3.20
2023-07-18T06:44:35.840Z,2.78
2023-07-18T06:45:09.811Z,3.35
2023-07-18T06:45:46.648Z,2.65
2023-07-18T06:46:20.354Z,3.25
2023-07-18T06:46:52.301Z,3.55
2023-07-18T06:47:25.013Z,3.80
2023-07-18T06:47:57.801Z,3.00
2023-07-18T06:48:29.657Z,2.58
2023-07-18T06:49:01.461Z,2.75
2023-07-18T06:49:33.467Z,3.47
2023-07-18T06:50:06.772Z,3.00
2023-07-18T06:50:39.323Z,3.33
2023-07-18T06:51:11.197Z,3.22
2023-07-18T06:51:42.984Z,2.55
2023-07-18T06:52:14.847Z,3.28
2023-07-18T06:52:46.833Z,2.83
2023-07-18T06:53:21.205Z,3.50
2023-07-18T06:53:53.324Z,3.15
2023-07-18T06:54:25.199Z,3.50
2023-07-18T06:54:57.035Z,3.38
2023-07-18T06:55:28.845Z,3.45
2023-07-18T06:56:00.738Z,4.10
2023-07-18T06:56:32.571Z,3.03
2023-07-18T06:57:05.364Z,3.60
2023-07-18T06:57:37.444Z,3.53
2023-07-18T06:58:11.965Z,3.45
2023-07-18T06:58:45.729Z,3.78
2023-07-18T06:59:17.575Z,3.40
2023-07-18T06:59:49.447Z,3.60
2023-07-18T07:00:21.671Z,3.00
2023-07-18T07:00:53.608Z,3.72
2023-07-18T07:01:25.512Z,3.58
2023-07-18T07:01:57.266Z,3.15
2023-07-18T07:02:30.424Z,3.42
2023-07-18T07:03:02.589Z,3.20
2023-07-18T07:03:34.560Z,3.60
2023-07-18T07:04:07.002Z,3.40
2023-07-18T07:04:40.287Z,3.90
2023-07-18T07:05:12.166Z,2.80
2023-07-18T07:05:44.521Z,2.80
2023-07-18T07:06:18.229Z,3.42
2023-07-18T07:06:50.018Z,3.22
2023-07-18T07:07:21.783Z,3.58
2023-07-18T07:07:54.736Z,3.75
2023-07-18T07:08:26.640Z,3.40
2023-07-18T07:08:58.579Z,3.13
2023-07-18T07:09:32.278Z,3.05
2023-07-18T07:10:04.480Z,3.42
2023-07-18T07:10:37.777Z,3.50
2023-07-18T07:11:09.832Z,3.10
2023-07-18T07:11:42.770Z,3.33
2023-07-18T07:12:26.356Z,3.33
2023-07-18T07:13:07.581Z,3.42
2023-07-18T07:13:39.608Z,3.35
2023-07-18T07:14:12.709Z,3.42
2023-07-18T07:14:44.919Z,3.95
2023-07-18T07:15:16.711Z,3.00
2023-07-18T07:15:48.472Z,2.88
2023-07-18T07:16:20.474Z,3.42
2023-07-18T07:16:52.654Z,3.00
2023-07-18T07:17:25.012Z,3.22